sensor_id;sensor_type;location;lat;lon;timestamp;pressure;altitude;pressure_sealevel;temperature;humidity
39487;BME280;25173;50.430;18.926;2023-10-13T00:00:20;98289.19;;;19.06;70.70
39487;BME280;25173;50.430;18.926;2023-10-13T00:03:40;98296.03;;;19.08;70.54
39487;BME280;25173;50.430;18.926;2023-10-13T00:06:43;98292.44;;;19.08;70.32
39487;BME280;25173;50.430;18.926;2023-10-13T00:09:50;98283.69;;;19.06;70.44
39487;BME280;25173;50.430;18.926;2023-10-13T00:12:50;98277.69;;;19.04;70.59
39487;BME280;25173;50.430;18.926;2023-10-13T00:15:51;98269.25;;;19.00;70.70
39487;BME280;25173;50.430;18.926;2023-10-13T00:18:58;98271.69;;;19.02;70.60
39487;BME280;25173;50.430;18.926;2023-10-13T00:22:06;98274.44;;;19.02;70.45
39487;BME280;25173;50.430;18.926;2023-10-13T00:25:10;98273.44;;;18.97;70.45
39487;BME280;25173;50.430;18.926;2023-10-13T00:28:19;98274.63;;;18.96;70.36
39487;BME280;25173;50.430;18.926;2023-10-13T00:31:27;98275.56;;;18.92;69.97
39487;BME280;25173;50.430;18.926;2023-10-13T00:34:33;98273.00;;;18.87;70.05
39487;BME280;25173;50.430;18.926;2023-10-13T00:37:47;98271.53;;;18.81;69.96
39487;BME280;25173;50.430;18.926;2023-10-13T00:40:48;98261.47;;;18.76;70.02
39487;BME280;25173;50.430;18.926;2023-10-13T00:43:52;98258.69;;;18.76;69.83
39487;BME280;25173;50.430;18.926;2023-10-13T00:47:05;98255.47;;;18.74;69.92
39487;BME280;25173;50.430;18.926;2023-10-13T00:50:08;98255.16;;;18.67;70.11
39487;BME280;25173;50.430;18.926;2023-10-13T00:53:12;98251.72;;;18.61;70.31
39487;BME280;25173;50.430;18.926;2023-10-13T00:56:13;98246.53;;;18.60;70.28
39487;BME280;25173;50.430;18.926;2023-10-13T00:59:22;98244.44;;;18.57;70.40
39487;BME280;25173;50.430;18.926;2023-10-13T01:02:25;98243.91;;;18.55;70.66
39487;BME280;25173;50.430;18.926;2023-10-13T01:05:39;98252.19;;;18.55;70.76
39487;BME280;25173;50.430;18.926;2023-10-13T01:08:41;98253.00;;;18.55;70.36
39487;BME280;25173;50.430;18.926;2023-10-13T01:11:49;98245.56;;;18.56;70.66
39487;BME280;25173;50.430;18.926;2023-10-13T01:14:52;98261.13;;;18.52;70.44
39487;BME280;25173;50.430;18.926;2023-10-13T01:17:53;98253.78;;;18.47;70.32
39487;BME280;25173;50.430;18.926;2023-10-13T01:20:56;98258.66;;;18.42;70.63
39487;BME280;25173;50.430;18.926;2023-10-13T01:24:00;98250.56;;;18.37;70.52
39487;BME280;25173;50.430;18.926;2023-10-13T01:27:02;98247.94;;;18.32;70.93
39487;BME280;25173;50.430;18.926;2023-10-13T01:30:18;98243.22;;;18.23;70.73
39487;BME280;25173;50.430;18.926;2023-10-13T01:33:28;98238.53;;;18.15;70.81
39487;BME280;25173;50.430;18.926;2023-10-13T01:36:29;98235.41;;;18.08;71.16
39487;BME280;25173;50.430;18.926;2023-10-13T01:39:35;98232.81;;;18.03;71.09
39487;BME280;25173;50.430;18.926;2023-10-13T01:42:36;98243.34;;;18.01;71.28
39487;BME280;25173;50.430;18.926;2023-10-13T01:45:37;98247.25;;;18.00;71.60
39487;BME280;25173;50.430;18.926;2023-10-13T01:48:49;98241.72;;;18.00;71.41
39487;BME280;25173;50.430;18.926;2023-10-13T01:51:54;98232.31;;;18.01;71.58
39487;BME280;25173;50.430;18.926;2023-10-13T01:54:55;98238.00;;;18.05;71.48
39487;BME280;25173;50.430;18.926;2023-10-13T01:57:58;98233.47;;;18.09;71.60
39487;BME280;25173;50.430;18.926;2023-10-13T02:00:58;98239.16;;;18.12;71.21
39487;BME280;25173;50.430;18.926;2023-10-13T02:04:01;98236.09;;;18.14;71.16
39487;BME280;25173;50.430;18.926;2023-10-13T02:07:03;98233.00;;;18.15;71.40
39487;BME280;25173;50.430;18.926;2023-10-13T02:10:05;98244.03;;;18.15;71.11
39487;BME280;25173;50.430;18.926;2023-10-13T02:13:06;98239.66;;;18.14;70.86
39487;BME280;25173;50.430;18.926;2023-10-13T02:16:15;98240.13;;;18.08;70.95
39487;BME280;25173;50.430;18.926;2023-10-13T02:19:22;98246.09;;;18.01;70.99
39487;BME280;25173;50.430;18.926;2023-10-13T02:22:27;98245.28;;;17.92;71.38
39487;BME280;25173;50.430;18.926;2023-10-13T02:25:28;98236.66;;;17.85;71.33
39487;BME280;25173;50.430;18.926;2023-10-13T02:28:46;98243.44;;;17.79;71.64
39487;BME280;25173;50.430;18.926;2023-10-13T02:31:52;98246.84;;;17.76;71.82
39487;BME280;25173;50.430;18.926;2023-10-13T02:34:56;98254.09;;;17.72;71.61
39487;BME280;25173;50.430;18.926;2023-10-13T02:38:06;98255.69;;;17.64;71.87
39487;BME280;25173;50.430;18.926;2023-10-13T02:41:15;98244.47;;;17.61;71.84
39487;BME280;25173;50.430;18.926;2023-10-13T02:44:26;98249.13;;;17.52;71.54
39487;BME280;25173;50.430;18.926;2023-10-13T02:47:31;98244.09;;;17.45;71.34
39487;BME280;25173;50.430;18.926;2023-10-13T02:50:32;98232.41;;;17.39;71.20
39487;BME280;25173;50.430;18.926;2023-10-13T02:53:34;98242.25;;;17.32;71.32
39487;BME280;25173;50.430;18.926;2023-10-13T02:56:34;98245.91;;;17.27;71.84
39487;BME280;25173;50.430;18.926;2023-10-13T02:59:36;98243.00;;;17.24;71.68
39487;BME280;25173;50.430;18.926;2023-10-13T03:02:46;98250.44;;;17.23;71.97
39487;BME280;25173;50.430;18.926;2023-10-13T03:05:59;98244.94;;;17.23;72.05
39487;BME280;25173;50.430;18.926;2023-10-13T03:09:06;98251.25;;;17.24;72.16
39487;BME280;25173;50.430;18.926;2023-10-13T03:12:20;98252.38;;;17.23;72.20
39487;BME280;25173;50.430;18.926;2023-10-13T03:15:21;98248.31;;;17.20;72.38
39487;BME280;25173;50.430;18.926;2023-10-13T03:18:29;98250.59;;;17.18;72.69
39487;BME280;25173;50.430;18.926;2023-10-13T03:21:34;98241.31;;;17.14;72.81
39487;BME280;25173;50.430;18.926;2023-10-13T03:24:38;98242.63;;;17.17;72.87
39487;BME280;25173;50.430;18.926;2023-10-13T03:27:45;98237.44;;;17.15;72.48
39487;BME280;25173;50.430;18.926;2023-10-13T03:30:48;98237.06;;;17.08;72.57
39487;BME280;25173;50.430;18.926;2023-10-13T03:33:53;98242.72;;;17.03;72.59
39487;BME280;25173;50.430;18.926;2023-10-13T03:37:01;98246.09;;;17.00;72.83
39487;BME280;25173;50.430;18.926;2023-10-13T03:40:12;98239.25;;;16.97;73.21
39487;BME280;25173;50.430;18.926;2023-10-13T03:43:22;98236.50;;;16.97;73.00
39487;BME280;25173;50.430;18.926;2023-10-13T03:46:23;98244.91;;;16.92;72.14
39487;BME280;25173;50.430;18.926;2023-10-13T03:49:24;98243.72;;;16.85;71.95
39487;BME280;25173;50.430;18.926;2023-10-13T03:52:28;98243.84;;;16.80;72.43
39487;BME280;25173;50.430;18.926;2023-10-13T03:55:44;98244.28;;;16.73;72.84
39487;BME280;25173;50.430;18.926;2023-10-13T03:58:55;98239.72;;;16.68;72.63
39487;BME280;25173;50.430;18.926;2023-10-13T04:02:00;98248.59;;;16.65;72.39
39487;BME280;25173;50.430;18.926;2023-10-13T04:05:03;98245.94;;;16.60;72.39
39487;BME280;25173;50.430;18.926;2023-10-13T04:08:10;98246.88;;;16.56;72.82
39487;BME280;25173;50.430;18.926;2023-10-13T04:11:26;98239.56;;;16.51;72.93
39487;BME280;25173;50.430;18.926;2023-10-13T04:15:01;98246.78;;;16.47;72.58
39487;BME280;25173;50.430;18.926;2023-10-13T04:18:04;98252.09;;;16.44;72.38
39487;BME280;25173;50.430;18.926;2023-10-13T04:21:14;98250.78;;;16.41;72.13
39487;BME280;25173;50.430;18.926;2023-10-13T04:24:33;98258.50;;;16.39;72.13
39487;BME280;25173;50.430;18.926;2023-10-13T04:27:52;98252.19;;;16.39;72.07
39487;BME280;25173;50.430;18.926;2023-10-13T04:31:15;98250.47;;;16.43;71.67
39487;BME280;25173;50.430;18.926;2023-10-13T04:34:25;98246.91;;;16.42;71.57
39487;BME280;25173;50.430;18.926;2023-10-13T04:37:29;98253.22;;;16.43;71.79
39487;BME280;25173;50.430;18.926;2023-10-13T04:40:29;98243.53;;;16.45;71.99
39487;BME280;25173;50.430;18.926;2023-10-13T04:43:35;98247.28;;;16.49;72.06
39487;BME280;25173;50.430;18.926;2023-10-13T04:46:55;98247.28;;;16.49;72.42
39487;BME280;25173;50.430;18.926;2023-10-13T04:49:59;98254.94;;;16.52;72.30
39487;BME280;25173;50.430;18.926;2023-10-13T04:53:01;98260.91;;;16.54;71.91
39487;BME280;25173;50.430;18.926;2023-10-13T04:56:02;98263.06;;;16.57;71.77
39487;BME280;25173;50.430;18.926;2023-10-13T04:59:03;98259.50;;;16.57;71.77
39487;BME280;25173;50.430;18.926;2023-10-13T05:02:18;98262.03;;;16.53;71.77
39487;BME280;25173;50.430;18.926;2023-10-13T05:05:36;98269.81;;;16.51;71.87
39487;BME280;25173;50.430;18.926;2023-10-13T05:08:46;98267.22;;;16.55;72.28
39487;BME280;25173;50.430;18.926;2023-10-13T05:12:05;98271.72;;;16.64;72.56
39487;BME280;25173;50.430;18.926;2023-10-13T05:15:24;98275.84;;;16.76;72.62
39487;BME280;25173;50.430;18.926;2023-10-13T05:18:43;98275.91;;;16.84;72.41
39487;BME280;25173;50.430;18.926;2023-10-13T05:22:02;98278.13;;;16.96;72.45
39487;BME280;25173;50.430;18.926;2023-10-13T05:25:21;98287.06;;;17.01;72.21
39487;BME280;25173;50.430;18.926;2023-10-13T05:28:40;98280.50;;;17.11;72.39
39487;BME280;25173;50.430;18.926;2023-10-13T05:31:58;98292.03;;;17.22;72.30
39487;BME280;25173;50.430;18.926;2023-10-13T05:35:20;98285.97;;;17.33;72.12
39487;BME280;25173;50.430;18.926;2023-10-13T05:38:39;98286.19;;;17.45;71.79
39487;BME280;25173;50.430;18.926;2023-10-13T05:41:58;98289.94;;;17.50;71.87
39487;BME280;25173;50.430;18.926;2023-10-13T05:45:17;98290.28;;;17.57;71.95
39487;BME280;25173;50.430;18.926;2023-10-13T05:48:17;98300.75;;;17.68;72.01
39487;BME280;25173;50.430;18.926;2023-10-13T05:51:29;98286.69;;;17.78;71.82
39487;BME280;25173;50.430;18.926;2023-10-13T05:54:44;98293.88;;;17.88;72.39
39487;BME280;25173;50.430;18.926;2023-10-13T05:58:03;98292.94;;;18.01;71.88
39487;BME280;25173;50.430;18.926;2023-10-13T06:01:22;98296.84;;;18.09;71.70
39487;BME280;25173;50.430;18.926;2023-10-13T06:05:08;98288.94;;;18.16;72.33
39487;BME280;25173;50.430;18.926;2023-10-13T06:08:28;98293.19;;;18.22;72.52
39487;BME280;25173;50.430;18.926;2023-10-13T06:11:47;98293.38;;;18.34;72.95
39487;BME280;25173;50.430;18.926;2023-10-13T06:15:06;98291.75;;;18.42;72.74
39487;BME280;25173;50.430;18.926;2023-10-13T06:18:25;98296.97;;;18.43;72.84
39487;BME280;25173;50.430;18.926;2023-10-13T06:21:46;98305.22;;;18.43;73.04
39487;BME280;25173;50.430;18.926;2023-10-13T06:25:05;98301.00;;;18.46;73.01
39487;BME280;25173;50.430;18.926;2023-10-13T06:28:24;98309.13;;;18.42;73.00
39487;BME280;25173;50.430;18.926;2023-10-13T06:31:44;98320.66;;;18.44;73.02
39487;BME280;25173;50.430;18.926;2023-10-13T06:34:46;98318.84;;;18.48;73.43
39487;BME280;25173;50.430;18.926;2023-10-13T06:37:48;98317.78;;;18.58;73.85
39487;BME280;25173;50.430;18.926;2023-10-13T06:40:49;98325.59;;;18.73;74.07
39487;BME280;25173;50.430;18.926;2023-10-13T06:43:51;98320.06;;;18.90;74.38
39487;BME280;25173;50.430;18.926;2023-10-13T06:46:59;98322.31;;;19.06;74.04
39487;BME280;25173;50.430;18.926;2023-10-13T06:50:04;98320.38;;;19.15;73.80
39487;BME280;25173;50.430;18.926;2023-10-13T06:53:15;98320.38;;;19.15;74.03
39487;BME280;25173;50.430;18.926;2023-10-13T06:56:17;98321.06;;;19.12;73.83
39487;BME280;25173;50.430;18.926;2023-10-13T06:59:22;98320.38;;;19.15;74.34
39487;BME280;25173;50.430;18.926;2023-10-13T07:02:27;98317.44;;;19.20;73.65
39487;BME280;25173;50.430;18.926;2023-10-13T07:05:38;98321.69;;;19.26;74.27
39487;BME280;25173;50.430;18.926;2023-10-13T07:08:39;98315.66;;;19.41;74.12
39487;BME280;25173;50.430;18.926;2023-10-13T07:11:39;98322.28;;;19.57;73.61
39487;BME280;25173;50.430;18.926;2023-10-13T07:14:47;98319.16;;;19.76;73.41
39487;BME280;25173;50.430;18.926;2023-10-13T07:17:58;98323.84;;;19.84;72.93
39487;BME280;25173;50.430;18.926;2023-10-13T07:21:08;98322.16;;;20.00;72.64
39487;BME280;25173;50.430;18.926;2023-10-13T07:24:13;98322.09;;;20.09;72.25
39487;BME280;25173;50.430;18.926;2023-10-13T07:27:21;98325.03;;;20.12;72.16
39487;BME280;25173;50.430;18.926;2023-10-13T07:30:26;98320.50;;;20.08;72.03
39487;BME280;25173;50.430;18.926;2023-10-13T07:33:27;98332.41;;;20.00;71.95
39487;BME280;25173;50.430;18.926;2023-10-13T07:36:28;98337.16;;;19.91;72.03
39487;BME280;25173;50.430;18.926;2023-10-13T07:39:33;98339.63;;;19.84;72.10
39487;BME280;25173;50.430;18.926;2023-10-13T07:42:34;98337.50;;;19.81;72.36
39487;BME280;25173;50.430;18.926;2023-10-13T07:45:40;98333.13;;;19.80;72.44
39487;BME280;25173;50.430;18.926;2023-10-13T07:48:40;98331.31;;;19.84;72.18
39487;BME280;25173;50.430;18.926;2023-10-13T07:51:41;98332.97;;;19.85;72.27
39487;BME280;25173;50.430;18.926;2023-10-13T07:54:46;98338.00;;;19.83;72.27
39487;BME280;25173;50.430;18.926;2023-10-13T07:57:49;98329.84;;;19.86;72.44
39487;BME280;25173;50.430;18.926;2023-10-13T08:00:54;98323.63;;;19.98;72.32
39487;BME280;25173;50.430;18.926;2023-10-13T08:04:17;98327.78;;;20.12;72.00
39487;BME280;25173;50.430;18.926;2023-10-13T08:07:28;98325.09;;;20.33;71.60
39487;BME280;25173;50.430;18.926;2023-10-13T08:10:35;98323.00;;;20.60;71.01
39487;BME280;25173;50.430;18.926;2023-10-13T08:13:36;98318.75;;;20.83;71.08
39487;BME280;25173;50.430;18.926;2023-10-13T08:16:38;98319.03;;;21.11;70.34
39487;BME280;25173;50.430;18.926;2023-10-13T08:19:54;98323.09;;;21.34;69.52
39487;BME280;25173;50.430;18.926;2023-10-13T08:22:56;98319.91;;;21.56;69.50
39487;BME280;25173;50.430;18.926;2023-10-13T08:26:13;98324.94;;;21.75;68.51
39487;BME280;25173;50.430;18.926;2023-10-13T08:29:30;98325.88;;;21.91;67.90
39487;BME280;25173;50.430;18.926;2023-10-13T08:32:32;98329.97;;;22.06;67.56
39487;BME280;25173;50.430;18.926;2023-10-13T08:35:32;98327.56;;;22.17;66.94
39487;BME280;25173;50.430;18.926;2023-10-13T08:38:36;98334.03;;;22.33;66.51
39487;BME280;25173;50.430;18.926;2023-10-13T08:41:51;98321.78;;;22.34;66.07
39487;BME280;25173;50.430;18.926;2023-10-13T08:48:28;98339.13;;;22.67;65.43
39487;BME280;25173;50.430;18.926;2023-10-13T08:51:35;98327.19;;;22.79;64.79
39487;BME280;25173;50.430;18.926;2023-10-13T08:55:05;98327.19;;;22.79;63.75
39487;BME280;25173;50.430;18.926;2023-10-13T08:58:25;98321.19;;;22.77;63.45
39487;BME280;25173;50.430;18.926;2023-10-13T09:01:45;98315.28;;;22.78;63.09
39487;BME280;25173;50.430;18.926;2023-10-13T09:04:49;98317.38;;;22.81;63.14
39487;BME280;25173;50.430;18.926;2023-10-13T09:07:59;98314.59;;;22.81;63.13
39487;BME280;25173;50.430;18.926;2023-10-13T09:11:10;98316.19;;;22.82;62.65
39487;BME280;25173;50.430;18.926;2023-10-13T09:14:14;98312.97;;;22.80;62.90
39487;BME280;25173;50.430;18.926;2023-10-13T09:17:44;98310.19;;;22.80;62.84
39487;BME280;25173;50.430;18.926;2023-10-13T09:21:08;98320.84;;;22.78;62.71
39487;BME280;25173;50.430;18.926;2023-10-13T09:24:35;98331.13;;;22.78;62.42
39487;BME280;25173;50.430;18.926;2023-10-13T09:27:36;98331.47;;;22.76;62.12
39487;BME280;25173;50.430;18.926;2023-10-13T09:30:54;98320.47;;;22.68;61.76
39487;BME280;25173;50.430;18.926;2023-10-13T09:33:58;98321.06;;;22.61;62.20
39487;BME280;25173;50.430;18.926;2023-10-13T09:37:00;98320.16;;;22.57;62.18
39487;BME280;25173;50.430;18.926;2023-10-13T09:40:04;98307.75;;;22.55;62.45
39487;BME280;25173;50.430;18.926;2023-10-13T09:43:07;98319.69;;;22.55;62.74
39487;BME280;25173;50.430;18.926;2023-10-13T09:46:08;98312.97;;;22.56;62.82
39487;BME280;25173;50.430;18.926;2023-10-13T09:49:24;98307.97;;;22.62;63.17
39487;BME280;25173;50.430;18.926;2023-10-13T09:52:45;98310.88;;;22.65;62.16
39487;BME280;25173;50.430;18.926;2023-10-13T09:56:00;98310.41;;;22.63;61.45
39487;BME280;25173;50.430;18.926;2023-10-13T10:02:49;98301.84;;;22.68;61.79
39487;BME280;25173;50.430;18.926;2023-10-13T10:06:01;98312.94;;;22.93;61.15
39487;BME280;25173;50.430;18.926;2023-10-13T10:09:17;98293.44;;;23.05;60.80
39487;BME280;25173;50.430;18.926;2023-10-13T10:15:31;98286.50;;;23.11;60.44
39487;BME280;25173;50.430;18.926;2023-10-13T10:18:43;98280.19;;;23.14;60.60
39487;BME280;25173;50.430;18.926;2023-10-13T10:21:44;98274.16;;;23.24;60.46
39487;BME280;25173;50.430;18.926;2023-10-13T10:24:56;98268.53;;;23.36;59.56
39487;BME280;25173;50.430;18.926;2023-10-13T10:27:58;98268.28;;;23.41;59.46
39487;BME280;25173;50.430;18.926;2023-10-13T10:31:05;98262.22;;;23.51;58.73
39487;BME280;25173;50.430;18.926;2023-10-13T10:34:15;98255.84;;;23.51;58.33
39487;BME280;25173;50.430;18.926;2023-10-13T10:37:18;98271.28;;;23.48;58.28
39487;BME280;25173;50.430;18.926;2023-10-13T10:40:19;98262.97;;;23.36;58.13
39487;BME280;25173;50.430;18.926;2023-10-13T10:43:39;98262.22;;;23.23;58.77
39487;BME280;25173;50.430;18.926;2023-10-13T10:46:43;98254.34;;;23.26;58.36
39487;BME280;25173;50.430;18.926;2023-10-13T10:49:52;98254.06;;;23.31;58.39
39487;BME280;25173;50.430;18.926;2023-10-13T10:52:53;98246.03;;;23.41;58.70
39487;BME280;25173;50.430;18.926;2023-10-13T10:56:04;98244.66;;;23.63;57.73
39487;BME280;25173;50.430;18.926;2023-10-13T10:59:06;98249.59;;;23.70;57.15
39487;BME280;25173;50.430;18.926;2023-10-13T11:02:19;98246.63;;;23.78;57.51
39487;BME280;25173;50.430;18.926;2023-10-13T11:05:27;98240.44;;;23.85;57.10
39487;BME280;25173;50.430;18.926;2023-10-13T11:08:33;98240.44;;;23.85;56.97
39487;BME280;25173;50.430;18.926;2023-10-13T11:11:35;98238.91;;;23.87;57.19
39487;BME280;25173;50.430;18.926;2023-10-13T11:14:36;98233.34;;;23.87;57.48
39487;BME280;25173;50.430;18.926;2023-10-13T11:17:39;98232.00;;;23.81;57.23
39487;BME280;25173;50.430;18.926;2023-10-13T11:20:44;98231.47;;;23.76;57.29
39487;BME280;25173;50.430;18.926;2023-10-13T11:23:55;98227.59;;;23.80;57.42
39487;BME280;25173;50.430;18.926;2023-10-13T11:26:56;98225.88;;;24.07;57.39
39487;BME280;25173;50.430;18.926;2023-10-13T11:29:57;98235.22;;;24.30;56.86
39487;BME280;25173;50.430;18.926;2023-10-13T11:33:08;98227.44;;;24.40;56.60
39487;BME280;25173;50.430;18.926;2023-10-13T11:36:08;98221.78;;;24.52;56.63
39487;BME280;25173;50.430;18.926;2023-10-13T11:39:15;98210.13;;;24.65;56.37
39487;BME280;25173;50.430;18.926;2023-10-13T11:42:39;98208.00;;;24.78;55.95
39487;BME280;25173;50.430;18.926;2023-10-13T11:45:50;98209.03;;;24.89;55.89
39487;BME280;25173;50.430;18.926;2023-10-13T11:49:13;98207.78;;;25.06;55.78
39487;BME280;25173;50.430;18.926;2023-10-13T11:52:13;98210.72;;;25.13;55.49
39487;BME280;25173;50.430;18.926;2023-10-13T11:55:17;98207.50;;;25.11;55.18
39487;BME280;25173;50.430;18.926;2023-10-13T11:58:19;98193.13;;;25.09;55.11
39487;BME280;25173;50.430;18.926;2023-10-13T12:01:19;98193.06;;;25.28;54.85
39487;BME280;25173;50.430;18.926;2023-10-13T12:04:20;98203.41;;;25.47;54.65
39487;BME280;25173;50.430;18.926;2023-10-13T12:07:40;98208.91;;;25.43;54.54
39487;BME280;25173;50.430;18.926;2023-10-13T12:10:45;98191.78;;;25.45;52.66
39487;BME280;25173;50.430;18.926;2023-10-13T12:14:00;98198.53;;;25.44;54.59
39487;BME280;25173;50.430;18.926;2023-10-13T12:17:12;98193.91;;;25.51;53.82
39487;BME280;25173;50.430;18.926;2023-10-13T12:20:14;98191.34;;;25.62;53.70
39487;BME280;25173;50.430;18.926;2023-10-13T12:23:32;98190.53;;;25.62;53.38
39487;BME280;25173;50.430;18.926;2023-10-13T12:26:33;98193.16;;;25.55;53.43
39487;BME280;25173;50.430;18.926;2023-10-13T12:29:38;98189.84;;;25.68;53.55
39487;BME280;25173;50.430;18.926;2023-10-13T12:32:46;98180.09;;;25.81;53.29
39487;BME280;25173;50.430;18.926;2023-10-13T12:35:59;98178.69;;;25.95;52.68
39487;BME280;25173;50.430;18.926;2023-10-13T12:39:30;98173.22;;;26.02;52.76
39487;BME280;25173;50.430;18.926;2023-10-13T12:42:50;98181.19;;;26.00;52.48
39487;BME280;25173;50.430;18.926;2023-10-13T12:46:09;98172.38;;;25.98;52.12
39487;BME280;25173;50.430;18.926;2023-10-13T12:49:45;98179.50;;;25.95;52.27
39487;BME280;25173;50.430;18.926;2023-10-13T12:52:46;98178.81;;;26.02;52.26
39487;BME280;25173;50.430;18.926;2023-10-13T12:55:46;98184.09;;;26.07;52.13
39487;BME280;25173;50.430;18.926;2023-10-13T12:58:47;98174.00;;;25.99;52.33
39487;BME280;25173;50.430;18.926;2023-10-13T13:01:54;98158.97;;;26.07;52.74
39487;BME280;25173;50.430;18.926;2023-10-13T13:04:56;98162.94;;;26.06;52.10
39487;BME280;25173;50.430;18.926;2023-10-13T13:08:06;98149.78;;;26.06;52.10
39487;BME280;25173;50.430;18.926;2023-10-13T13:11:06;98156.53;;;26.05;51.95
39487;BME280;25173;50.430;18.926;2023-10-13T13:14:07;98157.50;;;25.90;52.16
39487;BME280;25173;50.430;18.926;2023-10-13T13:17:08;98144.88;;;25.73;52.54
39487;BME280;25173;50.430;18.926;2023-10-13T13:20:09;98139.72;;;25.52;52.67
39487;BME280;25173;50.430;18.926;2023-10-13T13:23:26;98130.00;;;25.43;53.18
39487;BME280;25173;50.430;18.926;2023-10-13T13:26:26;98133.22;;;25.45;53.12
39487;BME280;25173;50.430;18.926;2023-10-13T13:29:27;98135.47;;;25.36;52.74
39487;BME280;25173;50.430;18.926;2023-10-13T13:32:28;98122.56;;;25.28;53.16
39487;BME280;25173;50.430;18.926;2023-10-13T13:35:29;98125.75;;;25.26;53.30
39487;BME280;25173;50.430;18.926;2023-10-13T13:38:35;98129.59;;;25.18;53.47
39487;BME280;25173;50.430;18.926;2023-10-13T13:41:35;98139.84;;;25.14;53.54
39487;BME280;25173;50.430;18.926;2023-10-13T13:44:36;98136.13;;;25.06;53.97
39487;BME280;25173;50.430;18.926;2023-10-13T13:47:36;98130.41;;;24.99;53.85
39487;BME280;25173;50.430;18.926;2023-10-13T13:50:37;98133.16;;;24.96;53.82
39487;BME280;25173;50.430;18.926;2023-10-13T13:53:41;98126.78;;;24.95;54.19
39487;BME280;25173;50.430;18.926;2023-10-13T13:56:46;98127.84;;;25.10;54.28
39487;BME280;25173;50.430;18.926;2023-10-13T13:59:47;98126.41;;;25.20;54.11
39487;BME280;25173;50.430;18.926;2023-10-13T14:02:48;98113.66;;;25.19;53.87
39487;BME280;25173;50.430;18.926;2023-10-13T14:05:48;98117.91;;;25.12;53.82
39487;BME280;25173;50.430;18.926;2023-10-13T14:08:52;98110.75;;;25.11;54.29
39487;BME280;25173;50.430;18.926;2023-10-13T14:11:55;98115.75;;;25.02;54.51
39487;BME280;25173;50.430;18.926;2023-10-13T14:15:14;98109.00;;;25.03;54.65
39487;BME280;25173;50.430;18.926;2023-10-13T14:18:24;98102.88;;;24.94;54.36
39487;BME280;25173;50.430;18.926;2023-10-13T14:21:30;98110.25;;;24.87;54.56
39487;BME280;25173;50.430;18.926;2023-10-13T14:24:34;98108.06;;;24.76;54.73
39487;BME280;25173;50.430;18.926;2023-10-13T14:27:35;98108.00;;;24.73;55.05
39487;BME280;25173;50.430;18.926;2023-10-13T14:30:36;98111.03;;;24.64;55.05
39487;BME280;25173;50.430;18.926;2023-10-13T14:33:36;98099.59;;;24.50;55.22
39487;BME280;25173;50.430;18.926;2023-10-13T14:36:37;98113.09;;;24.48;55.28
39487;BME280;25173;50.430;18.926;2023-10-13T14:39:39;98106.06;;;24.35;55.88
39487;BME280;25173;50.430;18.926;2023-10-13T14:42:40;98103.03;;;24.24;56.18
39487;BME280;25173;50.430;18.926;2023-10-13T14:45:40;98111.50;;;24.12;56.39
39487;BME280;25173;50.430;18.926;2023-10-13T14:48:44;98111.03;;;24.10;56.71
39487;BME280;25173;50.430;18.926;2023-10-13T14:51:45;98105.78;;;24.05;56.60
39487;BME280;25173;50.430;18.926;2023-10-13T14:54:45;98104.44;;;23.99;56.72
39487;BME280;25173;50.430;18.926;2023-10-13T14:57:50;98102.75;;;23.94;57.02
39487;BME280;25173;50.430;18.926;2023-10-13T15:00:50;98096.31;;;23.90;57.07
39487;BME280;25173;50.430;18.926;2023-10-13T15:03:53;98084.56;;;23.81;57.42
39487;BME280;25173;50.430;18.926;2023-10-13T15:06:57;98086.09;;;23.79;57.20
39487;BME280;25173;50.430;18.926;2023-10-13T15:09:57;98085.06;;;23.68;57.55
39487;BME280;25173;50.430;18.926;2023-10-13T15:12:58;98078.06;;;23.58;57.93
39487;BME280;25173;50.430;18.926;2023-10-13T15:15:59;98071.09;;;23.48;58.48
39487;BME280;25173;50.430;18.926;2023-10-13T15:19:01;98076.19;;;23.46;58.27
39487;BME280;25173;50.430;18.926;2023-10-13T15:22:05;98069.38;;;23.44;58.42
39487;BME280;25173;50.430;18.926;2023-10-13T15:25:13;98067.22;;;23.53;58.75
39487;BME280;25173;50.430;18.926;2023-10-13T15:28:29;98067.66;;;23.71;58.44
39487;BME280;25173;50.430;18.926;2023-10-13T15:31:31;98064.94;;;23.74;58.26
39487;BME280;25173;50.430;18.926;2023-10-13T15:34:36;98058.94;;;23.72;58.37
39487;BME280;25173;50.430;18.926;2023-10-13T15:37:38;98061.47;;;23.62;58.79
39487;BME280;25173;50.430;18.926;2023-10-13T15:40:45;98057.63;;;23.50;58.79
39487;BME280;25173;50.430;18.926;2023-10-13T15:43:46;98058.00;;;23.33;59.15
39487;BME280;25173;50.430;18.926;2023-10-13T15:46:55;98053.25;;;23.18;59.31
39487;BME280;25173;50.430;18.926;2023-10-13T15:49:55;98073.94;;;23.05;59.68
39487;BME280;25173;50.430;18.926;2023-10-13T15:52:56;98059.63;;;22.87;60.30
39487;BME280;25173;50.430;18.926;2023-10-13T15:55:56;98052.41;;;22.70;60.63
39487;BME280;25173;50.430;18.926;2023-10-13T15:59:00;98056.75;;;22.56;61.03
39487;BME280;25173;50.430;18.926;2023-10-13T16:02:01;98049.66;;;22.42;61.48
39487;BME280;25173;50.430;18.926;2023-10-13T16:05:04;98051.25;;;22.28;61.69
39487;BME280;25173;50.430;18.926;2023-10-13T16:08:07;98043.88;;;22.20;62.32
39487;BME280;25173;50.430;18.926;2023-10-13T16:11:13;98050.72;;;22.10;62.43
39487;BME280;25173;50.430;18.926;2023-10-13T16:14:13;98052.03;;;22.00;62.83
39487;BME280;25173;50.430;18.926;2023-10-13T16:17:21;98048.56;;;21.91;63.22
39487;BME280;25173;50.430;18.926;2023-10-13T16:20:23;98045.13;;;21.82;63.07
39487;BME280;25173;50.430;18.926;2023-10-13T16:23:25;98039.81;;;21.77;63.54
39487;BME280;25173;50.430;18.926;2023-10-13T16:26:26;98043.53;;;21.69;63.69
39487;BME280;25173;50.430;18.926;2023-10-13T16:29:26;98044.94;;;21.63;63.66